Terminal Aerodrome Forecast
Issued by NWS Charleston, SC

Home | Current Version | Previous Version | Text Only | Print | Product List | Glossary On
Versions: 1 2 3 4 5 6 7 8 9 10 11 12 13 14 15 16 17 18 19 20 21 22 23
000
FTUS42 KCHS 010532
TAFCHS
TAF
KCHS 010532Z 0106/0206 VRB02KT 6SM MIFG FEW015 SCT100
     FM011400 04004KT P6SM FEW015 BKN040
     FM011900 17007KT P6SM SCT030 SCT100
     FM020000 VRB03KT P6SM FEW025 SCT100=

USA.gov is the U.S. government's official web portal to all federal, state and local government web resources and services.